sensor_id;sensor_type;location;lat;lon;timestamp;temperature;humidity
34829;DHT22;21042;47.620;12.188;2023-11-21T00:02:26;7.00;99.90
34829;DHT22;21042;47.620;12.188;2023-11-21T00:04:54;7.00;99.90
34829;DHT22;21042;47.620;12.188;2023-11-21T00:07:20;7.00;99.90
34829;DHT22;21042;47.620;12.188;2023-11-21T00:09:48;7.00;99.90
34829;DHT22;21042;47.620;12.188;2023-11-21T00:12:15;7.10;99.90
34829;DHT22;21042;47.620;12.188;2023-11-21T00:14:41;7.00;99.90
34829;DHT22;21042;47.620;12.188;2023-11-21T00:17:08;7.10;99.90
34829;DHT22;21042;47.620;12.188;2023-11-21T00:19:36;7.10;99.90
34829;DHT22;21042;47.620;12.188;2023-11-21T00:22:03;7.10;99.90
34829;DHT22;21042;47.620;12.188;2023-11-21T00:24:29;7.00;99.90
34829;DHT22;21042;47.620;12.188;2023-11-21T00:26:56;6.90;99.90
34829;DHT22;21042;47.620;12.188;2023-11-21T00:29:23;6.80;99.90
34829;DHT22;21042;47.620;12.188;2023-11-21T00:31:50;6.80;99.90
34829;DHT22;21042;47.620;12.188;2023-11-21T00:34:17;6.90;99.90
34829;DHT22;21042;47.620;12.188;2023-11-21T00:36:44;6.90;99.90
34829;DHT22;21042;47.620;12.188;2023-11-21T00:39:11;6.90;99.90
34829;DHT22;21042;47.620;12.188;2023-11-21T00:41:39;6.90;99.90
34829;DHT22;21042;47.620;12.188;2023-11-21T00:44:06;7.00;99.90
34829;DHT22;21042;47.620;12.188;2023-11-21T00:46:33;7.00;99.90
34829;DHT22;21042;47.620;12.188;2023-11-21T00:49:00;6.90;99.90
34829;DHT22;21042;47.620;12.188;2023-11-21T00:51:27;6.90;99.90
34829;DHT22;21042;47.620;12.188;2023-11-21T00:53:54;6.90;99.90
34829;DHT22;21042;47.620;12.188;2023-11-21T00:56:21;6.80;99.90
34829;DHT22;21042;47.620;12.188;2023-11-21T00:58:48;6.80;99.90
34829;DHT22;21042;47.620;12.188;2023-11-21T01:01:19;6.70;99.90
34829;DHT22;21042;47.620;12.188;2023-11-21T01:03:46;6.70;99.90
34829;DHT22;21042;47.620;12.188;2023-11-21T01:06:13;6.70;99.90
34829;DHT22;21042;47.620;12.188;2023-11-21T01:08:43;6.70;99.90
34829;DHT22;21042;47.620;12.188;2023-11-21T01:11:11;6.70;99.90
34829;DHT22;21042;47.620;12.188;2023-11-21T01:13:39;6.70;99.90
34829;DHT22;21042;47.620;12.188;2023-11-21T01:16:07;6.60;99.90
34829;DHT22;21042;47.620;12.188;2023-11-21T01:18:34;6.60;99.90
34829;DHT22;21042;47.620;12.188;2023-11-21T01:21:01;6.60;99.90
34829;DHT22;21042;47.620;12.188;2023-11-21T01:23:28;6.70;99.90
34829;DHT22;21042;47.620;12.188;2023-11-21T01:25:56;6.70;99.90
34829;DHT22;21042;47.620;12.188;2023-11-21T01:28:23;6.70;99.90
34829;DHT22;21042;47.620;12.188;2023-11-21T01:30:50;6.80;99.90
34829;DHT22;21042;47.620;12.188;2023-11-21T01:33:19;6.80;99.90
34829;DHT22;21042;47.620;12.188;2023-11-21T01:35:45;6.70;99.90
34829;DHT22;21042;47.620;12.188;2023-11-21T01:38:13;6.70;99.90
34829;DHT22;21042;47.620;12.188;2023-11-21T01:40:40;6.70;99.90
34829;DHT22;21042;47.620;12.188;2023-11-21T01:43:07;6.70;99.90
34829;DHT22;21042;47.620;12.188;2023-11-21T01:45:35;6.70;99.90
34829;DHT22;21042;47.620;12.188;2023-11-21T01:48:02;6.60;99.90
34829;DHT22;21042;47.620;12.188;2023-11-21T01:50:30;6.50;99.90
34829;DHT22;21042;47.620;12.188;2023-11-21T01:52:57;6.50;99.90
34829;DHT22;21042;47.620;12.188;2023-11-21T01:55:24;6.50;99.90
34829;DHT22;21042;47.620;12.188;2023-11-21T01:57:56;6.50;99.90
34829;DHT22;21042;47.620;12.188;2023-11-21T02:00:24;6.50;99.90
34829;DHT22;21042;47.620;12.188;2023-11-21T02:02:52;6.40;99.90
34829;DHT22;21042;47.620;12.188;2023-11-21T02:05:19;6.40;99.90
34829;DHT22;21042;47.620;12.188;2023-11-21T02:07:48;6.30;99.90
34829;DHT22;21042;47.620;12.188;2023-11-21T02:10:16;6.30;99.90
34829;DHT22;21042;47.620;12.188;2023-11-21T02:12:44;6.30;99.90
34829;DHT22;21042;47.620;12.188;2023-11-21T02:15:13;6.20;99.90
34829;DHT22;21042;47.620;12.188;2023-11-21T02:17:50;6.20;99.90
34829;DHT22;21042;47.620;12.188;2023-11-21T02:20:22;6.20;99.90
34829;DHT22;21042;47.620;12.188;2023-11-21T02:22:52;6.20;99.90
34829;DHT22;21042;47.620;12.188;2023-11-21T02:27:52;6.10;99.90
34829;DHT22;21042;47.620;12.188;2023-11-21T02:30:24;6.10;99.90
34829;DHT22;21042;47.620;12.188;2023-11-21T02:33:00;6.10;99.90
34829;DHT22;21042;47.620;12.188;2023-11-21T02:35:28;6.00;99.90
34829;DHT22;21042;47.620;12.188;2023-11-21T02:37:55;6.00;99.90
34829;DHT22;21042;47.620;12.188;2023-11-21T02:40:24;6.00;99.90
34829;DHT22;21042;47.620;12.188;2023-11-21T02:42:52;6.00;99.90
34829;DHT22;21042;47.620;12.188;2023-11-21T02:45:20;6.00;99.90
34829;DHT22;21042;47.620;12.188;2023-11-21T02:47:51;6.10;99.90
34829;DHT22;21042;47.620;12.188;2023-11-21T02:50:20;6.20;99.90
34829;DHT22;21042;47.620;12.188;2023-11-21T02:52:50;6.30;99.90
34829;DHT22;21042;47.620;12.188;2023-11-21T02:55:18;6.40;99.90
34829;DHT22;21042;47.620;12.188;2023-11-21T02:57:45;6.40;99.90
34829;DHT22;21042;47.620;12.188;2023-11-21T03:00:12;6.50;99.90
34829;DHT22;21042;47.620;12.188;2023-11-21T03:02:42;6.50;99.90
34829;DHT22;21042;47.620;12.188;2023-11-21T03:05:10;6.50;99.90
34829;DHT22;21042;47.620;12.188;2023-11-21T03:07:37;6.50;99.90
34829;DHT22;21042;47.620;12.188;2023-11-21T03:10:06;6.50;99.90
34829;DHT22;21042;47.620;12.188;2023-11-21T03:12:33;6.50;99.90
34829;DHT22;21042;47.620;12.188;2023-11-21T03:15:00;6.60;99.90
34829;DHT22;21042;47.620;12.188;2023-11-21T03:17:28;6.60;99.90
34829;DHT22;21042;47.620;12.188;2023-11-21T03:19:55;6.60;99.90
34829;DHT22;21042;47.620;12.188;2023-11-21T03:22:23;6.60;99.90
34829;DHT22;21042;47.620;12.188;2023-11-21T03:24:50;6.50;99.90
34829;DHT22;21042;47.620;12.188;2023-11-21T03:27:17;6.40;99.90
34829;DHT22;21042;47.620;12.188;2023-11-21T03:29:44;6.30;99.90
34829;DHT22;21042;47.620;12.188;2023-11-21T03:32:13;6.30;99.90
34829;DHT22;21042;47.620;12.188;2023-11-21T03:34:54;6.20;99.90
34829;DHT22;21042;47.620;12.188;2023-11-21T03:37:22;6.20;99.90
34829;DHT22;21042;47.620;12.188;2023-11-21T03:39:49;6.20;99.90
34829;DHT22;21042;47.620;12.188;2023-11-21T03:42:16;6.30;99.90
34829;DHT22;21042;47.620;12.188;2023-11-21T03:44:43;6.30;99.90
34829;DHT22;21042;47.620;12.188;2023-11-21T03:47:09;6.30;99.90
34829;DHT22;21042;47.620;12.188;2023-11-21T03:49:37;6.40;99.90
34829;DHT22;21042;47.620;12.188;2023-11-21T03:52:04;6.40;99.90
34829;DHT22;21042;47.620;12.188;2023-11-21T03:54:31;6.40;99.90
34829;DHT22;21042;47.620;12.188;2023-11-21T03:56:58;6.50;99.90
34829;DHT22;21042;47.620;12.188;2023-11-21T03:59:26;6.50;99.90
34829;DHT22;21042;47.620;12.188;2023-11-21T04:01:55;6.50;99.90
34829;DHT22;21042;47.620;12.188;2023-11-21T04:04:23;6.40;99.90
34829;DHT22;21042;47.620;12.188;2023-11-21T04:06:50;6.40;99.90
34829;DHT22;21042;47.620;12.188;2023-11-21T04:09:18;6.40;99.90
34829;DHT22;21042;47.620;12.188;2023-11-21T04:11:45;6.40;99.90
34829;DHT22;21042;47.620;12.188;2023-11-21T04:14:12;6.40;99.90
34829;DHT22;21042;47.620;12.188;2023-11-21T04:16:40;6.40;99.90
34829;DHT22;21042;47.620;12.188;2023-11-21T04:19:08;6.40;99.90
34829;DHT22;21042;47.620;12.188;2023-11-21T04:21:37;6.30;99.90
34829;DHT22;21042;47.620;12.188;2023-11-21T04:24:04;6.30;99.90
34829;DHT22;21042;47.620;12.188;2023-11-21T04:26:31;6.20;99.90
34829;DHT22;21042;47.620;12.188;2023-11-21T04:28:58;6.30;99.90
34829;DHT22;21042;47.620;12.188;2023-11-21T04:31:25;6.30;99.90
34829;DHT22;21042;47.620;12.188;2023-11-21T04:33:52;6.30;99.90
34829;DHT22;21042;47.620;12.188;2023-11-21T04:36:19;6.30;99.90
34829;DHT22;21042;47.620;12.188;2023-11-21T04:38:46;6.30;99.90
34829;DHT22;21042;47.620;12.188;2023-11-21T04:41:13;6.30;99.90
34829;DHT22;21042;47.620;12.188;2023-11-21T04:43:40;6.30;99.90
34829;DHT22;21042;47.620;12.188;2023-11-21T04:46:06;6.30;99.90
34829;DHT22;21042;47.620;12.188;2023-11-21T04:48:33;6.30;99.90
34829;DHT22;21042;47.620;12.188;2023-11-21T04:51:00;6.40;99.90
34829;DHT22;21042;47.620;12.188;2023-11-21T04:53:27;6.40;99.90
34829;DHT22;21042;47.620;12.188;2023-11-21T04:55:53;6.40;99.90
34829;DHT22;21042;47.620;12.188;2023-11-21T04:58:20;6.40;99.90
34829;DHT22;21042;47.620;12.188;2023-11-21T05:00:47;6.40;99.90
34829;DHT22;21042;47.620;12.188;2023-11-21T05:03:14;6.40;99.90
34829;DHT22;21042;47.620;12.188;2023-11-21T05:05:41;6.40;99.90
34829;DHT22;21042;47.620;12.188;2023-11-21T05:08:08;6.40;99.90
34829;DHT22;21042;47.620;12.188;2023-11-21T05:10:35;6.40;99.90
34829;DHT22;21042;47.620;12.188;2023-11-21T05:13:04;6.40;99.90
34829;DHT22;21042;47.620;12.188;2023-11-21T05:15:36;6.40;99.90
34829;DHT22;21042;47.620;12.188;2023-11-21T05:18:04;6.40;99.90
34829;DHT22;21042;47.620;12.188;2023-11-21T05:20:32;6.40;99.90
34829;DHT22;21042;47.620;12.188;2023-11-21T05:22:59;6.40;99.90
34829;DHT22;21042;47.620;12.188;2023-11-21T05:25:26;6.50;99.90
34829;DHT22;21042;47.620;12.188;2023-11-21T05:27:53;6.50;99.90
34829;DHT22;21042;47.620;12.188;2023-11-21T05:30:21;6.40;99.90
34829;DHT22;21042;47.620;12.188;2023-11-21T05:32:48;6.40;99.90
34829;DHT22;21042;47.620;12.188;2023-11-21T05:35:16;6.40;99.90
34829;DHT22;21042;47.620;12.188;2023-11-21T05:37:47;6.40;99.90
34829;DHT22;21042;47.620;12.188;2023-11-21T05:40:14;6.40;99.90
34829;DHT22;21042;47.620;12.188;2023-11-21T05:42:41;6.40;99.90
34829;DHT22;21042;47.620;12.188;2023-11-21T05:45:09;6.40;99.90
34829;DHT22;21042;47.620;12.188;2023-11-21T05:47:39;6.40;99.90
34829;DHT22;21042;47.620;12.188;2023-11-21T05:50:09;6.30;99.90
34829;DHT22;21042;47.620;12.188;2023-11-21T05:52:37;6.40;99.90
34829;DHT22;21042;47.620;12.188;2023-11-21T05:55:04;6.40;99.90
34829;DHT22;21042;47.620;12.188;2023-11-21T05:57:38;6.40;99.90
34829;DHT22;21042;47.620;12.188;2023-11-21T06:00:10;6.40;99.90
34829;DHT22;21042;47.620;12.188;2023-11-21T06:02:49;6.30;99.90
34829;DHT22;21042;47.620;12.188;2023-11-21T06:05:23;6.40;99.90
34829;DHT22;21042;47.620;12.188;2023-11-21T06:07:53;6.40;99.90
34829;DHT22;21042;47.620;12.188;2023-11-21T06:10:20;6.40;99.90
34829;DHT22;21042;47.620;12.188;2023-11-21T06:12:48;6.40;99.90
34829;DHT22;21042;47.620;12.188;2023-11-21T06:15:15;6.40;99.90
34829;DHT22;21042;47.620;12.188;2023-11-21T06:17:45;6.40;99.90
34829;DHT22;21042;47.620;12.188;2023-11-21T06:20:16;6.50;99.90
34829;DHT22;21042;47.620;12.188;2023-11-21T06:22:47;6.50;99.90
34829;DHT22;21042;47.620;12.188;2023-11-21T06:25:14;6.50;99.90
34829;DHT22;21042;47.620;12.188;2023-11-21T06:27:47;6.40;99.90
34829;DHT22;21042;47.620;12.188;2023-11-21T06:30:18;6.40;99.90
34829;DHT22;21042;47.620;12.188;2023-11-21T06:32:46;6.40;99.90
34829;DHT22;21042;47.620;12.188;2023-11-21T06:35:14;6.40;99.90
34829;DHT22;21042;47.620;12.188;2023-11-21T06:37:43;6.40;99.90
34829;DHT22;21042;47.620;12.188;2023-11-21T06:40:15;6.40;99.90
34829;DHT22;21042;47.620;12.188;2023-11-21T06:42:41;6.40;99.90
34829;DHT22;21042;47.620;12.188;2023-11-21T06:45:08;6.40;99.90
34829;DHT22;21042;47.620;12.188;2023-11-21T06:47:38;6.50;99.90
34829;DHT22;21042;47.620;12.188;2023-11-21T06:50:05;6.50;99.90
34829;DHT22;21042;47.620;12.188;2023-11-21T06:52:33;6.50;99.90
34829;DHT22;21042;47.620;12.188;2023-11-21T06:55:01;6.50;99.90
34829;DHT22;21042;47.620;12.188;2023-11-21T06:57:28;6.50;99.90
34829;DHT22;21042;47.620;12.188;2023-11-21T06:59:54;6.50;99.90
34829;DHT22;21042;47.620;12.188;2023-11-21T07:02:24;6.50;99.90
34829;DHT22;21042;47.620;12.188;2023-11-21T07:04:51;6.50;99.90
34829;DHT22;21042;47.620;12.188;2023-11-21T07:07:18;6.50;99.90
34829;DHT22;21042;47.620;12.188;2023-11-21T07:09:45;6.50;99.90
34829;DHT22;21042;47.620;12.188;2023-11-21T07:12:12;6.50;99.90
34829;DHT22;21042;47.620;12.188;2023-11-21T07:14:40;6.50;99.90
34829;DHT22;21042;47.620;12.188;2023-11-21T07:17:10;6.50;99.90
34829;DHT22;21042;47.620;12.188;2023-11-21T07:19:37;6.50;99.90
34829;DHT22;21042;47.620;12.188;2023-11-21T07:22:03;6.50;99.90
34829;DHT22;21042;47.620;12.188;2023-11-21T07:24:32;6.60;99.90
34829;DHT22;21042;47.620;12.188;2023-11-21T07:26:59;6.60;99.90
34829;DHT22;21042;47.620;12.188;2023-11-21T07:29:27;6.60;99.90
34829;DHT22;21042;47.620;12.188;2023-11-21T07:31:56;6.60;99.90
34829;DHT22;21042;47.620;12.188;2023-11-21T07:34:23;6.60;99.90
34829;DHT22;21042;47.620;12.188;2023-11-21T07:36:49;6.60;99.90
34829;DHT22;21042;47.620;12.188;2023-11-21T07:39:16;6.70;99.90
34829;DHT22;21042;47.620;12.188;2023-11-21T07:41:43;6.70;99.90
34829;DHT22;21042;47.620;12.188;2023-11-21T07:44:16;6.70;99.90
34829;DHT22;21042;47.620;12.188;2023-11-21T07:46:44;6.70;99.90
34829;DHT22;21042;47.620;12.188;2023-11-21T07:49:11;6.60;99.90
34829;DHT22;21042;47.620;12.188;2023-11-21T07:51:38;6.60;99.90
34829;DHT22;21042;47.620;12.188;2023-11-21T07:54:05;6.70;99.90
34829;DHT22;21042;47.620;12.188;2023-11-21T07:56:32;6.70;99.90
34829;DHT22;21042;47.620;12.188;2023-11-21T07:58:59;6.80;99.90
34829;DHT22;21042;47.620;12.188;2023-11-21T08:01:25;6.80;99.90
34829;DHT22;21042;47.620;12.188;2023-11-21T08:03:54;6.90;99.90
34829;DHT22;21042;47.620;12.188;2023-11-21T08:06:23;7.00;99.90
34829;DHT22;21042;47.620;12.188;2023-11-21T08:08:52;7.00;99.90
34829;DHT22;21042;47.620;12.188;2023-11-21T08:11:19;7.00;99.90
34829;DHT22;21042;47.620;12.188;2023-11-21T08:13:48;7.10;99.90
34829;DHT22;21042;47.620;12.188;2023-11-21T08:16:14;7.10;99.90
34829;DHT22;21042;47.620;12.188;2023-11-21T08:18:41;7.10;99.90
34829;DHT22;21042;47.620;12.188;2023-11-21T08:21:08;7.10;99.90
34829;DHT22;21042;47.620;12.188;2023-11-21T08:23:35;7.10;99.90
34829;DHT22;21042;47.620;12.188;2023-11-21T08:26:02;7.10;99.90
34829;DHT22;21042;47.620;12.188;2023-11-21T08:28:32;7.10;99.90
34829;DHT22;21042;47.620;12.188;2023-11-21T08:31:00;7.10;99.90
34829;DHT22;21042;47.620;12.188;2023-11-21T08:33:27;7.10;99.90
34829;DHT22;21042;47.620;12.188;2023-11-21T08:35:54;7.10;99.90
34829;DHT22;21042;47.620;12.188;2023-11-21T08:38:21;7.10;99.90
34829;DHT22;21042;47.620;12.188;2023-11-21T08:40:48;7.00;99.90
34829;DHT22;21042;47.620;12.188;2023-11-21T08:43:15;7.10;99.90
34829;DHT22;21042;47.620;12.188;2023-11-21T08:45:43;7.00;99.90
34829;DHT22;21042;47.620;12.188;2023-11-21T08:48:09;7.10;99.90
34829;DHT22;21042;47.620;12.188;2023-11-21T08:50:38;7.20;99.90
34829;DHT22;21042;47.620;12.188;2023-11-21T08:53:05;7.20;99.90
34829;DHT22;21042;47.620;12.188;2023-11-21T08:55:32;7.30;99.90
34829;DHT22;21042;47.620;12.188;2023-11-21T08:58:04;7.40;99.90
34829;DHT22;21042;47.620;12.188;2023-11-21T09:00:32;7.40;99.90
34829;DHT22;21042;47.620;12.188;2023-11-21T09:03:01;7.50;99.90
34829;DHT22;21042;47.620;12.188;2023-11-21T09:05:29;7.60;99.90
34829;DHT22;21042;47.620;12.188;2023-11-21T09:07:56;7.50;99.90
34829;DHT22;21042;47.620;12.188;2023-11-21T09:10:23;7.60;99.90
34829;DHT22;21042;47.620;12.188;2023-11-21T09:12:52;7.60;99.90
34829;DHT22;21042;47.620;12.188;2023-11-21T09:15:19;7.70;99.90
34829;DHT22;21042;47.620;12.188;2023-11-21T09:17:47;7.70;99.90
34829;DHT22;21042;47.620;12.188;2023-11-21T09:20:14;7.80;99.90
34829;DHT22;21042;47.620;12.188;2023-11-21T09:22:41;7.80;99.90
34829;DHT22;21042;47.620;12.188;2023-11-21T09:25:08;7.80;99.90
34829;DHT22;21042;47.620;12.188;2023-11-21T09:27:35;7.80;99.90
34829;DHT22;21042;47.620;12.188;2023-11-21T09:30:02;7.80;99.90
34829;DHT22;21042;47.620;12.188;2023-11-21T09:32:31;7.80;99.90
34829;DHT22;21042;47.620;12.188;2023-11-21T09:34:58;7.90;99.90
34829;DHT22;21042;47.620;12.188;2023-11-21T09:37:27;7.90;99.90
34829;DHT22;21042;47.620;12.188;2023-11-21T09:39:54;8.00;99.90
34829;DHT22;21042;47.620;12.188;2023-11-21T09:42:38;8.00;99.90
34829;DHT22;21042;47.620;12.188;2023-11-21T09:45:08;8.10;99.90
34829;DHT22;21042;47.620;12.188;2023-11-21T09:47:39;8.10;99.90
34829;DHT22;21042;47.620;12.188;2023-11-21T09:50:06;8.10;99.90
34829;DHT22;21042;47.620;12.188;2023-11-21T09:52:54;8.20;99.90
34829;DHT22;21042;47.620;12.188;2023-11-21T09:55:22;8.20;99.90
34829;DHT22;21042;47.620;12.188;2023-11-21T09:57:50;8.20;99.90
34829;DHT22;21042;47.620;12.188;2023-11-21T10:00:18;8.20;99.90
34829;DHT22;21042;47.620;12.188;2023-11-21T10:02:47;8.30;99.90
34829;DHT22;21042;47.620;12.188;2023-11-21T10:05:16;8.20;99.90
34829;DHT22;21042;47.620;12.188;2023-11-21T10:07:44;8.30;99.90
34829;DHT22;21042;47.620;12.188;2023-11-21T10:10:11;8.30;99.90
34829;DHT22;21042;47.620;12.188;2023-11-21T10:12:38;8.30;99.90
34829;DHT22;21042;47.620;12.188;2023-11-21T10:15:08;8.40;99.90
34829;DHT22;21042;47.620;12.188;2023-11-21T10:17:36;8.40;99.90
34829;DHT22;21042;47.620;12.188;2023-11-21T10:20:11;8.40;99.90
34829;DHT22;21042;47.620;12.188;2023-11-21T10:22:41;8.30;99.90
34829;DHT22;21042;47.620;12.188;2023-11-21T10:25:11;8.30;99.90
34829;DHT22;21042;47.620;12.188;2023-11-21T10:27:41;8.40;99.90
34829;DHT22;21042;47.620;12.188;2023-11-21T10:30:08;8.40;99.90
34829;DHT22;21042;47.620;12.188;2023-11-21T10:32:39;8.40;99.90
34829;DHT22;21042;47.620;12.188;2023-11-21T10:35:08;8.40;99.90
34829;DHT22;21042;47.620;12.188;2023-11-21T10:37:38;8.40;99.90
34829;DHT22;21042;47.620;12.188;2023-11-21T10:40:09;8.40;99.90
34829;DHT22;21042;47.620;12.188;2023-11-21T10:42:40;8.50;99.90
34829;DHT22;21042;47.620;12.188;2023-11-21T10:45:08;8.50;99.90
34829;DHT22;21042;47.620;12.188;2023-11-21T10:47:43;8.60;99.90
34829;DHT22;21042;47.620;12.188;2023-11-21T10:50:10;8.70;99.90
34829;DHT22;21042;47.620;12.188;2023-11-21T10:52:40;8.70;99.90
34829;DHT22;21042;47.620;12.188;2023-11-21T10:55:19;8.70;99.90
34829;DHT22;21042;47.620;12.188;2023-11-21T10:57:48;8.80;99.90
34829;DHT22;21042;47.620;12.188;2023-11-21T11:00:16;8.90;99.90
34829;DHT22;21042;47.620;12.188;2023-11-21T11:02:52;9.00;99.90
34829;DHT22;21042;47.620;12.188;2023-11-21T11:05:22;8.90;99.90
34829;DHT22;21042;47.620;12.188;2023-11-21T11:07:52;8.90;99.90
34829;DHT22;21042;47.620;12.188;2023-11-21T11:10:29;8.90;99.90
34829;DHT22;21042;47.620;12.188;2023-11-21T11:12:58;8.80;99.90
34829;DHT22;21042;47.620;12.188;2023-11-21T11:15:26;8.90;99.90
34829;DHT22;21042;47.620;12.188;2023-11-21T11:17:54;8.90;99.90
34829;DHT22;21042;47.620;12.188;2023-11-21T11:20:34;8.90;99.90
34829;DHT22;21042;47.620;12.188;2023-11-21T11:29:59;8.60;99.90
34829;DHT22;21042;47.620;12.188;2023-11-21T11:35:19;8.50;99.90
34829;DHT22;21042;47.620;12.188;2023-11-21T11:37:50;8.50;99.90
34829;DHT22;21042;47.620;12.188;2023-11-21T11:40:17;8.60;99.90
34829;DHT22;21042;47.620;12.188;2023-11-21T11:42:58;8.70;99.90
34829;DHT22;21042;47.620;12.188;2023-11-21T11:45:32;8.70;99.90
34829;DHT22;21042;47.620;12.188;2023-11-21T11:48:00;8.70;99.90
34829;DHT22;21042;47.620;12.188;2023-11-21T11:50:28;8.70;99.90
34829;DHT22;21042;47.620;12.188;2023-11-21T11:52:55;8.70;99.90
34829;DHT22;21042;47.620;12.188;2023-11-21T11:55:38;8.70;99.90
34829;DHT22;21042;47.620;12.188;2023-11-21T11:58:06;8.70;99.90
34829;DHT22;21042;47.620;12.188;2023-11-21T12:00:33;8.60;99.90
34829;DHT22;21042;47.620;12.188;2023-11-21T12:03:05;8.50;99.90
34829;DHT22;21042;47.620;12.188;2023-11-21T12:05:35;8.50;99.90
34829;DHT22;21042;47.620;12.188;2023-11-21T12:08:12;8.40;99.90
34829;DHT22;21042;47.620;12.188;2023-11-21T12:10:39;8.30;99.90
34829;DHT22;21042;47.620;12.188;2023-11-21T12:13:10;8.30;99.90
34829;DHT22;21042;47.620;12.188;2023-11-21T12:15:39;8.30;99.90
34829;DHT22;21042;47.620;12.188;2023-11-21T12:18:07;8.40;99.90
34829;DHT22;21042;47.620;12.188;2023-11-21T12:20:35;8.50;99.90
34829;DHT22;21042;47.620;12.188;2023-11-21T12:23:09;8.50;99.90
34829;DHT22;21042;47.620;12.188;2023-11-21T12:25:37;8.50;99.90
34829;DHT22;21042;47.620;12.188;2023-11-21T12:28:08;8.50;99.90
34829;DHT22;21042;47.620;12.188;2023-11-21T12:30:36;8.50;99.90
34829;DHT22;21042;47.620;12.188;2023-11-21T12:33:04;8.50;99.90
34829;DHT22;21042;47.620;12.188;2023-11-21T12:35:34;8.50;99.90
34829;DHT22;21042;47.620;12.188;2023-11-21T12:38:03;8.60;99.90
34829;DHT22;21042;47.620;12.188;2023-11-21T12:40:30;8.60;99.90
34829;DHT22;21042;47.620;12.188;2023-11-21T12:42:59;8.60;99.90
34829;DHT22;21042;47.620;12.188;2023-11-21T12:45:27;8.70;99.90
34829;DHT22;21042;47.620;12.188;2023-11-21T12:48:05;8.70;99.90
34829;DHT22;21042;47.620;12.188;2023-11-21T12:50:36;8.80;99.90
34829;DHT22;21042;47.620;12.188;2023-11-21T12:53:09;8.80;99.90
34829;DHT22;21042;47.620;12.188;2023-11-21T12:55:37;8.80;99.90
34829;DHT22;21042;47.620;12.188;2023-11-21T12:58:09;8.80;99.90
34829;DHT22;21042;47.620;12.188;2023-11-21T13:00:44;8.80;99.90
34829;DHT22;21042;47.620;12.188;2023-11-21T13:03:12;8.80;99.90
34829;DHT22;21042;47.620;12.188;2023-11-21T13:05:45;8.80;99.90
34829;DHT22;21042;47.620;12.188;2023-11-21T13:08:14;8.80;99.90
34829;DHT22;21042;47.620;12.188;2023-11-21T13:10:49;8.70;99.90
34829;DHT22;21042;47.620;12.188;2023-11-21T13:13:16;8.70;99.90
34829;DHT22;21042;47.620;12.188;2023-11-21T13:15:58;8.70;99.90
34829;DHT22;21042;47.620;12.188;2023-11-21T13:18:28;8.70;99.90
34829;DHT22;21042;47.620;12.188;2023-11-21T13:20:57;8.80;99.90
34829;DHT22;21042;47.620;12.188;2023-11-21T13:23:25;8.80;99.90
34829;DHT22;21042;47.620;12.188;2023-11-21T13:25:53;8.80;99.90
34829;DHT22;21042;47.620;12.188;2023-11-21T13:28:34;8.90;99.90
34829;DHT22;21042;47.620;12.188;2023-11-21T13:31:03;8.90;99.90
34829;DHT22;21042;47.620;12.188;2023-11-21T13:33:38;9.00;99.90
34829;DHT22;21042;47.620;12.188;2023-11-21T13:36:08;9.00;99.90
34829;DHT22;21042;47.620;12.188;2023-11-21T13:38:38;9.00;99.90
34829;DHT22;21042;47.620;12.188;2023-11-21T13:41:10;9.00;99.90
34829;DHT22;21042;47.620;12.188;2023-11-21T13:43:39;9.00;99.90
34829;DHT22;21042;47.620;12.188;2023-11-21T13:46:06;9.00;99.90
34829;DHT22;21042;47.620;12.188;2023-11-21T13:48:40;9.00;99.90
34829;DHT22;21042;47.620;12.188;2023-11-21T13:51:17;9.00;99.90
34829;DHT22;21042;47.620;12.188;2023-11-21T13:53:45;9.10;99.90
34829;DHT22;21042;47.620;12.188;2023-11-21T13:56:15;9.10;99.90
34829;DHT22;21042;47.620;12.188;2023-11-21T13:58:46;9.10;99.90
34829;DHT22;21042;47.620;12.188;2023-11-21T14:01:18;9.10;99.90
34829;DHT22;21042;47.620;12.188;2023-11-21T14:03:58;9.10;99.90
34829;DHT22;21042;47.620;12.188;2023-11-21T14:06:48;9.10;99.90
34829;DHT22;21042;47.620;12.188;2023-11-21T14:09:18;9.10;99.90
34829;DHT22;21042;47.620;12.188;2023-11-21T14:11:59;9.00;99.90
34829;DHT22;21042;47.620;12.188;2023-11-21T14:14:29;9.00;99.90
34829;DHT22;21042;47.620;12.188;2023-11-21T14:16:56;8.90;99.90
34829;DHT22;21042;47.620;12.188;2023-11-21T14:19:25;8.90;99.90
34829;DHT22;21042;47.620;12.188;2023-11-21T14:21:58;8.80;99.90
34829;DHT22;21042;47.620;12.188;2023-11-21T14:24:25;8.70;99.90
34829;DHT22;21042;47.620;12.188;2023-11-21T14:26:52;8.70;99.90
34829;DHT22;21042;47.620;12.188;2023-11-21T14:29:19;8.70;99.90
34829;DHT22;21042;47.620;12.188;2023-11-21T14:31:47;8.70;99.90
34829;DHT22;21042;47.620;12.188;2023-11-21T14:34:14;8.70;99.90
34829;DHT22;21042;47.620;12.188;2023-11-21T14:36:46;8.60;99.90
34829;DHT22;21042;47.620;12.188;2023-11-21T14:39:12;8.60;99.90
34829;DHT22;21042;47.620;12.188;2023-11-21T14:41:54;8.50;99.90
34829;DHT22;21042;47.620;12.188;2023-11-21T14:44:26;8.50;99.90
34829;DHT22;21042;47.620;12.188;2023-11-21T14:46:55;8.30;99.90
34829;DHT22;21042;47.620;12.188;2023-11-21T14:49:24;8.30;99.90
34829;DHT22;21042;47.620;12.188;2023-11-21T14:51:54;8.20;99.90
34829;DHT22;21042;47.620;12.188;2023-11-21T14:54:29;8.20;99.90
34829;DHT22;21042;47.620;12.188;2023-11-21T14:57:08;8.20;99.90
34829;DHT22;21042;47.620;12.188;2023-11-21T14:59:46;8.10;99.90
34829;DHT22;21042;47.620;12.188;2023-11-21T15:02:24;8.00;99.90
34829;DHT22;21042;47.620;12.188;2023-11-21T15:05:10;7.90;99.90
34829;DHT22;21042;47.620;12.188;2023-11-21T15:07:43;7.80;99.90
34829;DHT22;21042;47.620;12.188;2023-11-21T15:10:12;7.80;99.90
34829;DHT22;21042;47.620;12.188;2023-11-21T15:12:42;7.80;99.90
34829;DHT22;21042;47.620;12.188;2023-11-21T15:15:11;7.80;99.90
34829;DHT22;21042;47.620;12.188;2023-11-21T15:17:38;7.70;99.90
34829;DHT22;21042;47.620;12.188;2023-11-21T15:20:10;7.70;99.90
34829;DHT22;21042;47.620;12.188;2023-11-21T15:22:39;7.60;99.90
34829;DHT22;21042;47.620;12.188;2023-11-21T15:25:06;7.50;99.90
34829;DHT22;21042;47.620;12.188;2023-11-21T15:27:37;7.40;99.90
34829;DHT22;21042;47.620;12.188;2023-11-21T15:30:04;7.40;99.90
34829;DHT22;21042;47.620;12.188;2023-11-21T15:32:31;7.40;99.90
34829;DHT22;21042;47.620;12.188;2023-11-21T15:34:58;7.40;99.90
34829;DHT22;21042;47.620;12.188;2023-11-21T15:37:25;7.30;99.90
34829;DHT22;21042;47.620;12.188;2023-11-21T15:39:54;7.40;99.90
34829;DHT22;21042;47.620;12.188;2023-11-21T15:42:21;7.30;99.90
34829;DHT22;21042;47.620;12.188;2023-11-21T15:44:48;7.30;99.90
34829;DHT22;21042;47.620;12.188;2023-11-21T15:47:14;7.30;99.90
34829;DHT22;21042;47.620;12.188;2023-11-21T15:49:41;7.30;99.90
34829;DHT22;21042;47.620;12.188;2023-11-21T15:52:09;7.30;99.90
34829;DHT22;21042;47.620;12.188;2023-11-21T15:54:38;7.40;99.90